sensor_id;sensor_type;location;lat;lon;timestamp;P1;durP1;ratioP1;P2;durP2;ratioP2
5752;SDS011;2901;42.140;24.760;2022-12-18T00:01:05;69.20;;;41.85;;
5752;SDS011;2901;42.140;24.760;2022-12-18T00:03:38;72.25;;;41.53;;
5752;SDS011;2901;42.140;24.760;2022-12-18T00:06:04;61.25;;;37.92;;
5752;SDS011;2901;42.140;24.760;2022-12-18T00:08:29;68.32;;;38.88;;
5752;SDS011;2901;42.140;24.760;2022-12-18T00:10:54;73.38;;;40.42;;
5752;SDS011;2901;42.140;24.760;2022-12-18T00:13:20;58.45;;;38.92;;
5752;SDS011;2901;42.140;24.760;2022-12-18T00:15:45;63.97;;;42.05;;
5752;SDS011;2901;42.140;24.760;2022-12-18T00:18:11;67.97;;;39.88;;
5752;SDS011;2901;42.140;24.760;2022-12-18T00:20:36;67.40;;;40.47;;
5752;SDS011;2901;42.140;24.760;2022-12-18T00:23:03;67.32;;;40.13;;
5752;SDS011;2901;42.140;24.760;2022-12-18T00:25:29;68.35;;;41.58;;
5752;SDS011;2901;42.140;24.760;2022-12-18T00:27:54;67.28;;;41.72;;
5752;SDS011;2901;42.140;24.760;2022-12-18T00:30:19;66.78;;;39.33;;
5752;SDS011;2901;42.140;24.760;2022-12-18T00:32:45;58.63;;;37.78;;
5752;SDS011;2901;42.140;24.760;2022-12-18T00:35:10;56.13;;;36.33;;
5752;SDS011;2901;42.140;24.760;2022-12-18T00:37:36;50.53;;;35.10;;
5752;SDS011;2901;42.140;24.760;2022-12-18T00:40:02;58.95;;;37.88;;
5752;SDS011;2901;42.140;24.760;2022-12-18T00:42:28;65.32;;;37.88;;
5752;SDS011;2901;42.140;24.760;2022-12-18T00:45:12;63.50;;;39.35;;
5752;SDS011;2901;42.140;24.760;2022-12-18T00:47:37;61.35;;;38.90;;
5752;SDS011;2901;42.140;24.760;2022-12-18T00:50:03;57.72;;;37.42;;
5752;SDS011;2901;42.140;24.760;2022-12-18T00:52:28;59.55;;;38.20;;
5752;SDS011;2901;42.140;24.760;2022-12-18T00:54:54;58.95;;;37.88;;
5752;SDS011;2901;42.140;24.760;2022-12-18T00:57:19;63.15;;;37.65;;
5752;SDS011;2901;42.140;24.760;2022-12-18T00:59:44;81.10;;;39.22;;
5752;SDS011;2901;42.140;24.760;2022-12-18T01:02:13;96.88;;;38.55;;
5752;SDS011;2901;42.140;24.760;2022-12-18T01:04:38;72.68;;;37.55;;
5752;SDS011;2901;42.140;24.760;2022-12-18T01:07:04;103.47;;;37.35;;
5752;SDS011;2901;42.140;24.760;2022-12-18T01:09:29;78.97;;;36.92;;
5752;SDS011;2901;42.140;24.760;2022-12-18T01:11:54;81.88;;;37.92;;
5752;SDS011;2901;42.140;24.760;2022-12-18T01:14:20;84.60;;;37.63;;
5752;SDS011;2901;42.140;24.760;2022-12-18T01:16:45;102.97;;;35.92;;
5752;SDS011;2901;42.140;24.760;2022-12-18T01:19:11;75.30;;;36.47;;
5752;SDS011;2901;42.140;24.760;2022-12-18T01:21:36;74.85;;;34.95;;
5752;SDS011;2901;42.140;24.760;2022-12-18T01:24:01;48.67;;;32.58;;
5752;SDS011;2901;42.140;24.760;2022-12-18T01:26:27;55.78;;;33.30;;
5752;SDS011;2901;42.140;24.760;2022-12-18T01:28:55;52.28;;;31.67;;
5752;SDS011;2901;42.140;24.760;2022-12-18T01:31:22;55.85;;;33.08;;
5752;SDS011;2901;42.140;24.760;2022-12-18T01:33:50;48.92;;;31.52;;
5752;SDS011;2901;42.140;24.760;2022-12-18T01:36:23;46.15;;;32.17;;
5752;SDS011;2901;42.140;24.760;2022-12-18T01:38:51;50.80;;;33.83;;
5752;SDS011;2901;42.140;24.760;2022-12-18T01:41:18;55.60;;;33.53;;
5752;SDS011;2901;42.140;24.760;2022-12-18T01:43:50;49.17;;;33.75;;
5752;SDS011;2901;42.140;24.760;2022-12-18T01:46:18;56.33;;;34.35;;
5752;SDS011;2901;42.140;24.760;2022-12-18T01:48:46;55.50;;;34.47;;
5752;SDS011;2901;42.140;24.760;2022-12-18T01:51:14;54.00;;;34.58;;
5752;SDS011;2901;42.140;24.760;2022-12-18T01:53:40;46.85;;;34.10;;
5752;SDS011;2901;42.140;24.760;2022-12-18T01:56:08;55.22;;;33.80;;
5752;SDS011;2901;42.140;24.760;2022-12-18T01:58:50;46.83;;;31.13;;
5752;SDS011;2901;42.140;24.760;2022-12-18T02:01:22;41.40;;;27.77;;
5752;SDS011;2901;42.140;24.760;2022-12-18T02:03:48;37.42;;;26.25;;
5752;SDS011;2901;42.140;24.760;2022-12-18T02:06:28;40.92;;;25.65;;
5752;SDS011;2901;42.140;24.760;2022-12-18T02:09:02;34.63;;;24.73;;
5752;SDS011;2901;42.140;24.760;2022-12-18T02:16:59;29.33;;;22.92;;
5752;SDS011;2901;42.140;24.760;2022-12-18T02:19:39;33.47;;;23.80;;
5752;SDS011;2901;42.140;24.760;2022-12-18T02:27:51;25.58;;;21.75;;
5752;SDS011;2901;42.140;24.760;2022-12-18T02:30:18;33.20;;;22.15;;
5752;SDS011;2901;42.140;24.760;2022-12-18T02:32:49;24.88;;;20.92;;
5752;SDS011;2901;42.140;24.760;2022-12-18T02:35:19;23.35;;;19.52;;
5752;SDS011;2901;42.140;24.760;2022-12-18T02:37:48;21.55;;;18.10;;
5752;SDS011;2901;42.140;24.760;2022-12-18T02:40:15;25.13;;;18.23;;
5752;SDS011;2901;42.140;24.760;2022-12-18T02:42:43;23.48;;;18.98;;
5752;SDS011;2901;42.140;24.760;2022-12-18T02:45:09;20.67;;;18.17;;
5752;SDS011;2901;42.140;24.760;2022-12-18T02:47:36;23.58;;;18.45;;
5752;SDS011;2901;42.140;24.760;2022-12-18T03:02:53;25.05;;;18.13;;
5752;SDS011;2901;42.140;24.760;2022-12-18T03:05:31;23.58;;;17.63;;
5752;SDS011;2901;42.140;24.760;2022-12-18T03:08:03;21.02;;;17.25;;
5752;SDS011;2901;42.140;24.760;2022-12-18T03:10:34;21.63;;;17.02;;
5752;SDS011;2901;42.140;24.760;2022-12-18T03:13:08;18.38;;;16.23;;
5752;SDS011;2901;42.140;24.760;2022-12-18T03:15:39;21.33;;;16.30;;
5752;SDS011;2901;42.140;24.760;2022-12-18T03:18:29;19.35;;;14.40;;
5752;SDS011;2901;42.140;24.760;2022-12-18T03:20:59;17.15;;;15.23;;
5752;SDS011;2901;42.140;24.760;2022-12-18T03:23:29;17.83;;;16.02;;
5752;SDS011;2901;42.140;24.760;2022-12-18T03:26:01;16.15;;;14.55;;
5752;SDS011;2901;42.140;24.760;2022-12-18T03:28:30;17.20;;;14.90;;
5752;SDS011;2901;42.140;24.760;2022-12-18T03:31:01;20.73;;;16.10;;
5752;SDS011;2901;42.140;24.760;2022-12-18T03:33:32;17.33;;;15.30;;
5752;SDS011;2901;42.140;24.760;2022-12-18T03:36:03;20.42;;;15.38;;
5752;SDS011;2901;42.140;24.760;2022-12-18T03:38:29;17.60;;;13.93;;
5752;SDS011;2901;42.140;24.760;2022-12-18T03:43:37;19.45;;;14.73;;
5752;SDS011;2901;42.140;24.760;2022-12-18T03:46:06;14.55;;;13.18;;
5752;SDS011;2901;42.140;24.760;2022-12-18T03:48:39;15.30;;;13.82;;
5752;SDS011;2901;42.140;24.760;2022-12-18T03:51:18;14.25;;;12.70;;
5752;SDS011;2901;42.140;24.760;2022-12-18T03:56:22;15.65;;;12.40;;
5752;SDS011;2901;42.140;24.760;2022-12-18T03:58:52;13.98;;;12.68;;
5752;SDS011;2901;42.140;24.760;2022-12-18T04:01:19;13.13;;;12.02;;
5752;SDS011;2901;42.140;24.760;2022-12-18T04:03:50;14.68;;;13.25;;
5752;SDS011;2901;42.140;24.760;2022-12-18T04:06:16;15.93;;;12.35;;
5752;SDS011;2901;42.140;24.760;2022-12-18T04:08:41;13.15;;;11.48;;
5752;SDS011;2901;42.140;24.760;2022-12-18T04:11:08;12.95;;;11.73;;
5752;SDS011;2901;42.140;24.760;2022-12-18T04:13:35;15.18;;;13.07;;
5752;SDS011;2901;42.140;24.760;2022-12-18T04:16:02;12.45;;;11.45;;
5752;SDS011;2901;42.140;24.760;2022-12-18T04:18:27;12.55;;;11.25;;
5752;SDS011;2901;42.140;24.760;2022-12-18T04:20:53;13.55;;;12.18;;
5752;SDS011;2901;42.140;24.760;2022-12-18T04:23:18;12.32;;;11.15;;
5752;SDS011;2901;42.140;24.760;2022-12-18T04:25:44;12.65;;;11.45;;
5752;SDS011;2901;42.140;24.760;2022-12-18T04:28:10;13.75;;;11.32;;
5752;SDS011;2901;42.140;24.760;2022-12-18T04:30:35;11.60;;;10.60;;
5752;SDS011;2901;42.140;24.760;2022-12-18T04:33:00;11.13;;;10.25;;
5752;SDS011;2901;42.140;24.760;2022-12-18T04:35:26;10.23;;;9.35;;
5752;SDS011;2901;42.140;24.760;2022-12-18T04:37:51;10.15;;;9.35;;
5752;SDS011;2901;42.140;24.760;2022-12-18T04:40:17;9.98;;;8.68;;
5752;SDS011;2901;42.140;24.760;2022-12-18T04:42:42;9.68;;;8.98;;
5752;SDS011;2901;42.140;24.760;2022-12-18T04:45:08;8.93;;;8.13;;
5752;SDS011;2901;42.140;24.760;2022-12-18T04:47:33;8.00;;;7.32;;
5752;SDS011;2901;42.140;24.760;2022-12-18T04:49:59;7.65;;;7.05;;
5752;SDS011;2901;42.140;24.760;2022-12-18T04:52:24;7.32;;;6.82;;
5752;SDS011;2901;42.140;24.760;2022-12-18T04:54:49;7.35;;;6.75;;
5752;SDS011;2901;42.140;24.760;2022-12-18T04:57:15;7.43;;;6.93;;
5752;SDS011;2901;42.140;24.760;2022-12-18T04:59:40;7.57;;;6.97;;
5752;SDS011;2901;42.140;24.760;2022-12-18T05:02:06;6.43;;;5.93;;
5752;SDS011;2901;42.140;24.760;2022-12-18T05:04:31;6.00;;;5.70;;
5752;SDS011;2901;42.140;24.760;2022-12-18T05:06:56;6.68;;;6.22;;
5752;SDS011;2901;42.140;24.760;2022-12-18T05:09:22;5.95;;;5.55;;
5752;SDS011;2901;42.140;24.760;2022-12-18T05:11:48;6.30;;;6.00;;
5752;SDS011;2901;42.140;24.760;2022-12-18T05:14:13;6.22;;;5.88;;
5752;SDS011;2901;42.140;24.760;2022-12-18T05:16:39;5.30;;;5.00;;
5752;SDS011;2901;42.140;24.760;2022-12-18T05:19:04;4.78;;;4.45;;
5752;SDS011;2901;42.140;24.760;2022-12-18T05:21:30;5.30;;;5.00;;
5752;SDS011;2901;42.140;24.760;2022-12-18T05:23:55;5.63;;;5.32;;
5752;SDS011;2901;42.140;24.760;2022-12-18T05:26:20;5.40;;;5.05;;
5752;SDS011;2901;42.140;24.760;2022-12-18T05:28:46;5.50;;;5.20;;
5752;SDS011;2901;42.140;24.760;2022-12-18T05:31:11;7.63;;;6.07;;
5752;SDS011;2901;42.140;24.760;2022-12-18T05:33:37;6.10;;;5.70;;
5752;SDS011;2901;42.140;24.760;2022-12-18T05:36:03;5.95;;;5.45;;
5752;SDS011;2901;42.140;24.760;2022-12-18T05:38:31;6.47;;;6.10;;
5752;SDS011;2901;42.140;24.760;2022-12-18T05:40:58;6.40;;;5.88;;
5752;SDS011;2901;42.140;24.760;2022-12-18T05:43:26;5.50;;;5.20;;
5752;SDS011;2901;42.140;24.760;2022-12-18T05:45:52;6.13;;;5.72;;
5752;SDS011;2901;42.140;24.760;2022-12-18T05:48:18;5.82;;;5.43;;
5752;SDS011;2901;42.140;24.760;2022-12-18T05:50:45;6.38;;;5.88;;
5752;SDS011;2901;42.140;24.760;2022-12-18T05:53:16;6.03;;;5.63;;
5752;SDS011;2901;42.140;24.760;2022-12-18T05:55:43;6.75;;;5.97;;
5752;SDS011;2901;42.140;24.760;2022-12-18T05:58:09;6.15;;;5.82;;
5752;SDS011;2901;42.140;24.760;2022-12-18T06:00:37;5.32;;;5.03;;
5752;SDS011;2901;42.140;24.760;2022-12-18T06:03:07;5.65;;;5.30;;
5752;SDS011;2901;42.140;24.760;2022-12-18T06:05:37;5.18;;;4.88;;
5752;SDS011;2901;42.140;24.760;2022-12-18T06:08:04;5.53;;;5.15;;
5752;SDS011;2901;42.140;24.760;2022-12-18T06:10:30;5.20;;;4.90;;
5752;SDS011;2901;42.140;24.760;2022-12-18T06:12:56;5.20;;;4.68;;
5752;SDS011;2901;42.140;24.760;2022-12-18T06:15:21;6.15;;;5.75;;
5752;SDS011;2901;42.140;24.760;2022-12-18T06:17:47;5.05;;;4.75;;
5752;SDS011;2901;42.140;24.760;2022-12-18T06:20:12;5.72;;;5.22;;
5752;SDS011;2901;42.140;24.760;2022-12-18T06:22:37;5.68;;;5.28;;
5752;SDS011;2901;42.140;24.760;2022-12-18T06:25:03;5.03;;;4.72;;
5752;SDS011;2901;42.140;24.760;2022-12-18T06:27:29;4.80;;;4.50;;
5752;SDS011;2901;42.140;24.760;2022-12-18T06:29:54;5.00;;;4.60;;
5752;SDS011;2901;42.140;24.760;2022-12-18T06:32:20;5.38;;;4.68;;
5752;SDS011;2901;42.140;24.760;2022-12-18T06:34:45;5.07;;;4.68;;
5752;SDS011;2901;42.140;24.760;2022-12-18T06:37:11;5.40;;;4.93;;
5752;SDS011;2901;42.140;24.760;2022-12-18T06:39:36;8.60;;;4.80;;
5752;SDS011;2901;42.140;24.760;2022-12-18T06:42:02;5.95;;;5.55;;
5752;SDS011;2901;42.140;24.760;2022-12-18T06:44:28;4.97;;;4.57;;
5752;SDS011;2901;42.140;24.760;2022-12-18T06:46:53;5.32;;;4.88;;
5752;SDS011;2901;42.140;24.760;2022-12-18T06:49:19;5.32;;;4.72;;
5752;SDS011;2901;42.140;24.760;2022-12-18T06:51:44;5.40;;;5.00;;
5752;SDS011;2901;42.140;24.760;2022-12-18T06:54:09;5.72;;;5.15;;
5752;SDS011;2901;42.140;24.760;2022-12-18T06:56:35;5.72;;;5.13;;
5752;SDS011;2901;42.140;24.760;2022-12-18T06:59:00;6.35;;;4.80;;
5752;SDS011;2901;42.140;24.760;2022-12-18T07:01:26;5.18;;;4.70;;
5752;SDS011;2901;42.140;24.760;2022-12-18T07:03:52;6.22;;;5.80;;
5752;SDS011;2901;42.140;24.760;2022-12-18T07:06:19;5.90;;;5.50;;
5752;SDS011;2901;42.140;24.760;2022-12-18T07:08:46;7.22;;;4.93;;
5752;SDS011;2901;42.140;24.760;2022-12-18T07:11:13;5.80;;;5.50;;
5752;SDS011;2901;42.140;24.760;2022-12-18T07:13:39;5.47;;;5.05;;
5752;SDS011;2901;42.140;24.760;2022-12-18T07:16:08;5.72;;;5.22;;
5752;SDS011;2901;42.140;24.760;2022-12-18T07:18:36;6.03;;;5.53;;
5752;SDS011;2901;42.140;24.760;2022-12-18T07:21:08;5.25;;;4.80;;
5752;SDS011;2901;42.140;24.760;2022-12-18T07:23:36;5.38;;;5.07;;
5752;SDS011;2901;42.140;24.760;2022-12-18T07:26:04;5.10;;;4.80;;
5752;SDS011;2901;42.140;24.760;2022-12-18T07:28:35;4.97;;;4.57;;
5752;SDS011;2901;42.140;24.760;2022-12-18T07:31:20;6.43;;;5.10;;
5752;SDS011;2901;42.140;24.760;2022-12-18T07:33:46;5.95;;;5.45;;
5752;SDS011;2901;42.140;24.760;2022-12-18T07:36:12;6.72;;;4.65;;
5752;SDS011;2901;42.140;24.760;2022-12-18T07:38:38;4.65;;;4.25;;
5752;SDS011;2901;42.140;24.760;2022-12-18T07:41:09;6.07;;;5.53;;
5752;SDS011;2901;42.140;24.760;2022-12-18T07:43:36;5.35;;;5.05;;
5752;SDS011;2901;42.140;24.760;2022-12-18T07:46:02;5.90;;;5.35;;
5752;SDS011;2901;42.140;24.760;2022-12-18T07:48:28;5.68;;;5.38;;
5752;SDS011;2901;42.140;24.760;2022-12-18T07:50:57;5.38;;;5.00;;
5752;SDS011;2901;42.140;24.760;2022-12-18T07:53:30;5.93;;;5.45;;
5752;SDS011;2901;42.140;24.760;2022-12-18T07:56:00;5.97;;;5.57;;
5752;SDS011;2901;42.140;24.760;2022-12-18T07:58:27;6.72;;;5.47;;
5752;SDS011;2901;42.140;24.760;2022-12-18T08:00:53;5.28;;;4.90;;
5752;SDS011;2901;42.140;24.760;2022-12-18T08:03:18;5.47;;;5.15;;
5752;SDS011;2901;42.140;24.760;2022-12-18T08:05:44;4.97;;;4.60;;
5752;SDS011;2901;42.140;24.760;2022-12-18T08:08:10;5.22;;;4.93;;
5752;SDS011;2901;42.140;24.760;2022-12-18T08:10:35;6.90;;;5.68;;
5752;SDS011;2901;42.140;24.760;2022-12-18T08:13:01;5.95;;;5.55;;
5752;SDS011;2901;42.140;24.760;2022-12-18T08:15:26;6.72;;;6.13;;
5752;SDS011;2901;42.140;24.760;2022-12-18T08:17:51;5.40;;;5.10;;
5752;SDS011;2901;42.140;24.760;2022-12-18T08:20:17;6.70;;;6.13;;
5752;SDS011;2901;42.140;24.760;2022-12-18T08:22:43;5.90;;;5.60;;
5752;SDS011;2901;42.140;24.760;2022-12-18T08:25:09;6.40;;;5.40;;
5752;SDS011;2901;42.140;24.760;2022-12-18T08:27:35;6.18;;;5.50;;
5752;SDS011;2901;42.140;24.760;2022-12-18T08:30:02;5.40;;;5.00;;
5752;SDS011;2901;42.140;24.760;2022-12-18T08:32:28;6.07;;;5.68;;
5752;SDS011;2901;42.140;24.760;2022-12-18T08:34:54;6.55;;;6.05;;
5752;SDS011;2901;42.140;24.760;2022-12-18T08:37:19;6.40;;;5.72;;
5752;SDS011;2901;42.140;24.760;2022-12-18T08:39:45;5.70;;;5.40;;
5752;SDS011;2901;42.140;24.760;2022-12-18T08:42:10;6.05;;;5.65;;
5752;SDS011;2901;42.140;24.760;2022-12-18T08:44:54;6.85;;;6.38;;
5752;SDS011;2901;42.140;24.760;2022-12-18T08:47:20;5.43;;;5.10;;
5752;SDS011;2901;42.140;24.760;2022-12-18T08:49:45;6.63;;;6.03;;
5752;SDS011;2901;42.140;24.760;2022-12-18T08:52:10;7.07;;;6.47;;
5752;SDS011;2901;42.140;24.760;2022-12-18T08:54:42;6.80;;;5.68;;
5752;SDS011;2901;42.140;24.760;2022-12-18T08:57:08;6.40;;;5.90;;
5752;SDS011;2901;42.140;24.760;2022-12-18T08:59:33;6.30;;;5.80;;
5752;SDS011;2901;42.140;24.760;2022-12-18T09:01:58;6.07;;;5.68;;
5752;SDS011;2901;42.140;24.760;2022-12-18T09:04:24;11.55;;;5.32;;
5752;SDS011;2901;42.140;24.760;2022-12-18T09:06:49;7.93;;;5.43;;
5752;SDS011;2901;42.140;24.760;2022-12-18T09:09:15;5.65;;;5.20;;
5752;SDS011;2901;42.140;24.760;2022-12-18T09:11:40;5.82;;;5.38;;
5752;SDS011;2901;42.140;24.760;2022-12-18T09:14:05;4.57;;;4.28;;
5752;SDS011;2901;42.140;24.760;2022-12-18T09:16:31;8.05;;;4.22;;
5752;SDS011;2901;42.140;24.760;2022-12-18T09:18:59;5.68;;;5.15;;
5752;SDS011;2901;42.140;24.760;2022-12-18T09:21:26;5.47;;;5.07;;
5752;SDS011;2901;42.140;24.760;2022-12-18T09:23:54;5.75;;;5.30;;
5752;SDS011;2901;42.140;24.760;2022-12-18T09:26:24;5.50;;;5.00;;
5752;SDS011;2901;42.140;24.760;2022-12-18T09:28:50;5.68;;;5.20;;
5752;SDS011;2901;42.140;24.760;2022-12-18T09:31:16;5.72;;;5.32;;
5752;SDS011;2901;42.140;24.760;2022-12-18T09:33:43;5.65;;;5.25;;
5752;SDS011;2901;42.140;24.760;2022-12-18T09:36:10;6.57;;;5.93;;
5752;SDS011;2901;42.140;24.760;2022-12-18T09:38:37;6.80;;;5.95;;
5752;SDS011;2901;42.140;24.760;2022-12-18T09:47:08;6.45;;;5.80;;
5752;SDS011;2901;42.140;24.760;2022-12-18T09:49:45;5.68;;;5.38;;
5752;SDS011;2901;42.140;24.760;2022-12-18T09:52:14;6.18;;;5.72;;
5752;SDS011;2901;42.140;24.760;2022-12-18T09:54:50;5.80;;;5.50;;
5752;SDS011;2901;42.140;24.760;2022-12-18T09:57:22;6.82;;;6.32;;
5752;SDS011;2901;42.140;24.760;2022-12-18T09:59:56;5.82;;;5.53;;
5752;SDS011;2901;42.140;24.760;2022-12-18T10:02:30;7.70;;;5.95;;
5752;SDS011;2901;42.140;24.760;2022-12-18T10:07:50;6.03;;;5.63;;
5752;SDS011;2901;42.140;24.760;2022-12-18T10:21:18;6.55;;;5.93;;
5752;SDS011;2901;42.140;24.760;2022-12-18T10:23:54;7.07;;;6.43;;
5752;SDS011;2901;42.140;24.760;2022-12-18T10:26:28;6.45;;;5.93;;
5752;SDS011;2901;42.140;24.760;2022-12-18T10:28:53;7.80;;;6.20;;
5752;SDS011;2901;42.140;24.760;2022-12-18T10:31:20;7.20;;;6.35;;
5752;SDS011;2901;42.140;24.760;2022-12-18T10:33:48;6.90;;;6.35;;
5752;SDS011;2901;42.140;24.760;2022-12-18T10:36:14;6.35;;;5.85;;
5752;SDS011;2901;42.140;24.760;2022-12-18T10:38:39;7.68;;;6.20;;
5752;SDS011;2901;42.140;24.760;2022-12-18T10:41:06;5.82;;;5.43;;
5752;SDS011;2901;42.140;24.760;2022-12-18T10:46:35;6.78;;;6.28;;
5752;SDS011;2901;42.140;24.760;2022-12-18T10:49:01;7.03;;;6.32;;
5752;SDS011;2901;42.140;24.760;2022-12-18T10:51:30;7.00;;;6.47;;
5752;SDS011;2901;42.140;24.760;2022-12-18T10:56:28;6.22;;;5.63;;
5752;SDS011;2901;42.140;24.760;2022-12-18T10:58:56;7.65;;;6.43;;
5752;SDS011;2901;42.140;24.760;2022-12-18T11:01:54;7.05;;;6.53;;
5752;SDS011;2901;42.140;24.760;2022-12-18T11:06:56;22.58;;;7.30;;
5752;SDS011;2901;42.140;24.760;2022-12-18T11:09:31;10.60;;;7.15;;
5752;SDS011;2901;42.140;24.760;2022-12-18T11:12:02;7.13;;;6.63;;
5752;SDS011;2901;42.140;24.760;2022-12-18T11:14:50;7.03;;;6.40;;
5752;SDS011;2901;42.140;24.760;2022-12-18T11:17:21;7.30;;;6.70;;
5752;SDS011;2901;42.140;24.760;2022-12-18T11:19:59;6.25;;;5.75;;
5752;SDS011;2901;42.140;24.760;2022-12-18T11:22:28;7.30;;;6.68;;
5752;SDS011;2901;42.140;24.760;2022-12-18T11:24:59;7.55;;;6.95;;
5752;SDS011;2901;42.140;24.760;2022-12-18T11:27:30;6.85;;;6.45;;
5752;SDS011;2901;42.140;24.760;2022-12-18T11:30:09;7.70;;;7.15;;
5752;SDS011;2901;42.140;24.760;2022-12-18T11:32:47;7.43;;;6.72;;
5752;SDS011;2901;42.140;24.760;2022-12-18T11:35:19;6.63;;;5.95;;
5752;SDS011;2901;42.140;24.760;2022-12-18T11:38:00;6.45;;;6.05;;
5752;SDS011;2901;42.140;24.760;2022-12-18T11:40:33;6.78;;;6.38;;
5752;SDS011;2901;42.140;24.760;2022-12-18T11:43:07;7.43;;;6.85;;
5752;SDS011;2901;42.140;24.760;2022-12-18T11:45:41;7.55;;;7.05;;
5752;SDS011;2901;42.140;24.760;2022-12-18T11:48:36;6.50;;;6.05;;
5752;SDS011;2901;42.140;24.760;2022-12-18T11:51:04;7.22;;;6.63;;
5752;SDS011;2901;42.140;24.760;2022-12-18T11:53:35;7.93;;;7.20;;
5752;SDS011;2901;42.140;24.760;2022-12-18T12:10:28;8.45;;;6.82;;
5752;SDS011;2901;42.140;24.760;2022-12-18T12:13:07;7.13;;;6.40;;
5752;SDS011;2901;42.140;24.760;2022-12-18T12:16:01;8.30;;;7.43;;
5752;SDS011;2901;42.140;24.760;2022-12-18T12:21:35;6.90;;;6.50;;
5752;SDS011;2901;42.140;24.760;2022-12-18T12:24:19;7.43;;;6.93;;
5752;SDS011;2901;42.140;24.760;2022-12-18T12:26:55;8.32;;;7.63;;
5752;SDS011;2901;42.140;24.760;2022-12-18T12:29:49;8.18;;;7.57;;
5752;SDS011;2901;42.140;24.760;2022-12-18T12:35:27;7.43;;;6.82;;
5752;SDS011;2901;42.140;24.760;2022-12-18T12:41:00;7.72;;;7.07;;
5752;SDS011;2901;42.140;24.760;2022-12-18T12:43:51;8.07;;;7.43;;
5752;SDS011;2901;42.140;24.760;2022-12-18T12:46:20;9.10;;;7.15;;
5752;SDS011;2901;42.140;24.760;2022-12-18T12:48:48;8.23;;;7.40;;
5752;SDS011;2901;42.140;24.760;2022-12-18T12:53:42;7.88;;;7.15;;
5752;SDS011;2901;42.140;24.760;2022-12-18T12:56:10;6.53;;;5.72;;
5752;SDS011;2901;42.140;24.760;2022-12-18T12:58:46;8.13;;;7.07;;
5752;SDS011;2901;42.140;24.760;2022-12-18T13:03:55;7.55;;;6.82;;
5752;SDS011;2901;42.140;24.760;2022-12-18T13:09:22;9.77;;;8.88;;
5752;SDS011;2901;42.140;24.760;2022-12-18T13:11:47;9.13;;;8.48;;
5752;SDS011;2901;42.140;24.760;2022-12-18T13:14:32;10.45;;;7.97;;
5752;SDS011;2901;42.140;24.760;2022-12-18T13:20:13;10.02;;;9.13;;
5752;SDS011;2901;42.140;24.760;2022-12-18T13:22:42;10.70;;;9.07;;
5752;SDS011;2901;42.140;24.760;2022-12-18T13:28:05;11.07;;;9.23;;
5752;SDS011;2901;42.140;24.760;2022-12-18T13:46:05;10.25;;;9.13;;
5752;SDS011;2901;42.140;24.760;2022-12-18T13:49:03;9.68;;;8.80;;
5752;SDS011;2901;42.140;24.760;2022-12-18T13:51:46;9.90;;;8.57;;
5752;SDS011;2901;42.140;24.760;2022-12-18T13:54:21;10.85;;;9.85;;
5752;SDS011;2901;42.140;24.760;2022-12-18T13:57:00;12.57;;;10.65;;
5752;SDS011;2901;42.140;24.760;2022-12-18T13:59:35;13.15;;;11.63;;
5752;SDS011;2901;42.140;24.760;2022-12-18T14:02:19;15.30;;;11.80;;
5752;SDS011;2901;42.140;24.760;2022-12-18T14:04:47;18.90;;;16.55;;
5752;SDS011;2901;42.140;24.760;2022-12-18T14:07:14;25.95;;;19.30;;
5752;SDS011;2901;42.140;24.760;2022-12-18T14:09:44;19.15;;;17.25;;
5752;SDS011;2901;42.140;24.760;2022-12-18T14:12:30;12.50;;;11.20;;
5752;SDS011;2901;42.140;24.760;2022-12-18T14:20:34;15.38;;;13.65;;
5752;SDS011;2901;42.140;24.760;2022-12-18T14:22:59;14.50;;;11.38;;
5752;SDS011;2901;42.140;24.760;2022-12-18T14:25:29;11.35;;;10.15;;
5752;SDS011;2901;42.140;24.760;2022-12-18T14:28:04;12.73;;;10.85;;
5752;SDS011;2901;42.140;24.760;2022-12-18T14:33:09;11.32;;;10.10;;
5752;SDS011;2901;42.140;24.760;2022-12-18T14:35:35;11.98;;;10.10;;
5752;SDS011;2901;42.140;24.760;2022-12-18T14:38:37;10.60;;;9.70;;
5752;SDS011;2901;42.140;24.760;2022-12-18T14:40:55;12.57;;;11.30;;
5752;SDS011;2901;42.140;24.760;2022-12-18T14:43:25;17.15;;;14.00;;
5752;SDS011;2901;42.140;24.760;2022-12-18T14:45:56;15.25;;;13.80;;
5752;SDS011;2901;42.140;24.760;2022-12-18T14:48:36;15.95;;;11.85;;
5752;SDS011;2901;42.140;24.760;2022-12-18T14:53:41;12.32;;;11.20;;
5752;SDS011;2901;42.140;24.760;2022-12-18T14:56:12;16.85;;;12.27;;
5752;SDS011;2901;42.140;24.760;2022-12-18T14:58:45;17.95;;;13.88;;
5752;SDS011;2901;42.140;24.760;2022-12-18T15:04:24;20.33;;;15.00;;
5752;SDS011;2901;42.140;24.760;2022-12-18T15:12:36;17.38;;;13.68;;
5752;SDS011;2901;42.140;24.760;2022-12-18T15:15:05;16.25;;;13.82;;
5752;SDS011;2901;42.140;24.760;2022-12-18T15:17:56;15.88;;;13.93;;
5752;SDS011;2901;42.140;24.760;2022-12-18T15:20:22;19.80;;;14.48;;
5752;SDS011;2901;42.140;24.760;2022-12-18T15:22:48;20.52;;;13.98;;
5752;SDS011;2901;42.140;24.760;2022-12-18T15:25:23;18.13;;;14.40;;
5752;SDS011;2901;42.140;24.760;2022-12-18T15:27:56;26.58;;;18.08;;
5752;SDS011;2901;42.140;24.760;2022-12-18T15:30:22;18.85;;;15.63;;
5752;SDS011;2901;42.140;24.760;2022-12-18T15:32:50;21.63;;;17.75;;
5752;SDS011;2901;42.140;24.760;2022-12-18T15:35:18;27.95;;;22.38;;
5752;SDS011;2901;42.140;24.760;2022-12-18T15:37:46;20.58;;;15.00;;
5752;SDS011;2901;42.140;24.760;2022-12-18T15:40:15;19.80;;;15.50;;
5752;SDS011;2901;42.140;24.760;2022-12-18T15:42:42;19.40;;;16.13;;
5752;SDS011;2901;42.140;24.760;2022-12-18T15:45:28;18.88;;;16.08;;
5752;SDS011;2901;42.140;24.760;2022-12-18T15:47:53;18.00;;;15.90;;
5752;SDS011;2901;42.140;24.760;2022-12-18T15:50:19;19.23;;;16.90;;
5752;SDS011;2901;42.140;24.760;2022-12-18T15:52:45;15.77;;;14.25;;
5752;SDS011;2901;42.140;24.760;2022-12-18T15:55:19;20.83;;;15.40;;
5752;SDS011;2901;42.140;24.760;2022-12-18T15:58:05;18.77;;;13.88;;
5752;SDS011;2901;42.140;24.760;2022-12-18T16:00:31;15.70;;;13.00;;
5752;SDS011;2901;42.140;24.760;2022-12-18T16:02:59;21.92;;;14.10;;
5752;SDS011;2901;42.140;24.760;2022-12-18T16:05:24;18.75;;;13.07;;
5752;SDS011;2901;42.140;24.760;2022-12-18T16:07:51;15.55;;;13.13;;
5752;SDS011;2901;42.140;24.760;2022-12-18T16:10:16;13.23;;;11.93;;
5752;SDS011;2901;42.140;24.760;2022-12-18T16:12:42;11.65;;;10.50;;
5752;SDS011;2901;42.140;24.760;2022-12-18T16:15:08;14.82;;;11.80;;
5752;SDS011;2901;42.140;24.760;2022-12-18T16:17:38;11.13;;;10.00;;
5752;SDS011;2901;42.140;24.760;2022-12-18T16:20:04;11.35;;;9.88;;
5752;SDS011;2901;42.140;24.760;2022-12-18T16:22:31;12.18;;;11.07;;
5752;SDS011;2901;42.140;24.760;2022-12-18T16:24:56;12.75;;;11.07;;
5752;SDS011;2901;42.140;24.760;2022-12-18T16:27:22;11.98;;;9.50;;
5752;SDS011;2901;42.140;24.760;2022-12-18T16:29:48;11.57;;;10.50;;
5752;SDS011;2901;42.140;24.760;2022-12-18T16:32:16;9.30;;;8.43;;
5752;SDS011;2901;42.140;24.760;2022-12-18T16:34:43;10.32;;;9.43;;
5752;SDS011;2901;42.140;24.760;2022-12-18T16:37:10;11.63;;;10.52;;
5752;SDS011;2901;42.140;24.760;2022-12-18T16:39:37;10.07;;;9.27;;
5752;SDS011;2901;42.140;24.760;2022-12-18T16:42:04;11.07;;;10.05;;
5752;SDS011;2901;42.140;24.760;2022-12-18T16:44:37;10.30;;;9.27;;
5752;SDS011;2901;42.140;24.760;2022-12-18T16:47:03;11.77;;;9.45;;
5752;SDS011;2901;42.140;24.760;2022-12-18T16:49:28;12.35;;;10.60;;
5752;SDS011;2901;42.140;24.760;2022-12-18T16:51:54;13.20;;;10.02;;
5752;SDS011;2901;42.140;24.760;2022-12-18T16:54:20;16.27;;;11.32;;
5752;SDS011;2901;42.140;24.760;2022-12-18T16:56:46;17.15;;;14.80;;
5752;SDS011;2901;42.140;24.760;2022-12-18T16:59:14;22.90;;;15.15;;
5752;SDS011;2901;42.140;24.760;2022-12-18T17:01:40;15.38;;;12.57;;
5752;SDS011;2901;42.140;24.760;2022-12-18T17:04:06;17.25;;;14.10;;
5752;SDS011;2901;42.140;24.760;2022-12-18T17:06:32;15.50;;;12.85;;
5752;SDS011;2901;42.140;24.760;2022-12-18T17:09:04;18.50;;;12.60;;